createdAt,value
2023-02-17T00:01:12.385Z,42.90
2023-02-17T00:05:01.646Z,47.20
2023-02-17T00:08:50.615Z,42.80
2023-02-17T00:12:39.566Z,39.00
2023-02-17T00:16:28.782Z,49.50
2023-02-17T00:20:18.173Z,34.80
2023-02-17T00:24:07.103Z,33.90
2023-02-17T00:27:56.219Z,33.00
2023-02-17T00:31:47.895Z,37.80
2023-02-17T00:35:37.188Z,38.10
2023-02-17T00:39:26.204Z,32.60
2023-02-17T00:43:15.276Z,33.70
2023-02-17T00:47:04.496Z,37.10
2023-02-17T01:03:03.036Z,33.00
2023-02-17T01:06:50.518Z,32.90
2023-02-17T01:14:34.885Z,31.10
2023-02-17T01:18:24.000Z,38.70
2023-02-17T01:22:16.445Z,33.80
2023-02-17T01:26:05.886Z,33.10
2023-02-17T01:29:55.380Z,31.60
2023-02-17T01:33:44.492Z,29.70
2023-02-17T01:37:33.648Z,30.30
2023-02-17T01:41:28.553Z,32.20
2023-02-17T01:45:17.565Z,32.90
2023-02-17T01:49:09.401Z,32.10
2023-02-17T02:01:12.254Z,31.90
2023-02-17T02:05:01.191Z,30.10
2023-02-17T02:20:43.610Z,35.00
2023-02-17T02:24:48.434Z,32.10
2023-02-17T02:28:43.769Z,32.80
2023-02-17T02:40:48.082Z,30.00
2023-02-17T02:44:37.177Z,30.50
2023-02-17T02:48:35.349Z,30.80
2023-02-17T02:52:30.323Z,32.40
2023-02-17T02:56:29.393Z,28.50
2023-02-17T03:00:17.661Z,34.40
2023-02-17T03:16:30.019Z,36.80
2023-02-17T03:20:17.719Z,32.40
2023-02-17T03:24:05.233Z,35.90
2023-02-17T03:27:53.152Z,39.20
2023-02-17T03:31:40.972Z,32.70
2023-02-17T03:35:28.878Z,32.30
2023-02-17T03:39:09.101Z,35.20
2023-02-17T03:42:57.821Z,34.90
2023-02-17T03:46:45.332Z,34.30
2023-02-17T03:50:33.407Z,34.00
2023-02-17T03:54:20.702Z,33.20
2023-02-17T04:06:29.464Z,34.00
2023-02-17T04:10:16.854Z,34.20
2023-02-17T04:14:04.435Z,33.10
2023-02-17T04:17:52.070Z,30.80
2023-02-17T04:21:39.892Z,34.50
2023-02-17T04:25:27.543Z,31.60
2023-02-17T04:33:12.074Z,29.40
2023-02-17T04:37:01.005Z,31.10
2023-02-17T04:40:50.104Z,31.10
2023-02-17T04:44:39.519Z,29.00
2023-02-17T04:48:28.937Z,31.00
2023-02-17T04:52:17.905Z,28.80
2023-02-17T04:56:07.448Z,29.30
2023-02-17T04:59:57.287Z,29.70
2023-02-17T05:03:39.033Z,27.10
2023-02-17T05:07:28.361Z,30.00
2023-02-17T05:11:17.361Z,28.70
2023-02-17T05:15:07.326Z,30.50
2023-02-17T05:30:33.933Z,29.50
2023-02-17T05:34:22.910Z,31.50
2023-02-17T05:38:12.205Z,25.30
2023-02-17T05:42:01.175Z,26.10
2023-02-17T05:45:41.631Z,27.90
2023-02-17T05:49:13.342Z,27.20
2023-02-17T05:52:45.658Z,27.80
2023-02-17T05:55:57.580Z,25.90
2023-02-17T05:58:56.670Z,33.10
2023-02-17T06:01:47.816Z,58.70
2023-02-17T06:05:15.619Z,60.40
2023-02-17T06:08:49.357Z,34.80
2023-02-17T06:12:22.221Z,28.80
2023-02-17T06:15:49.848Z,24.60
2023-02-17T06:18:51.924Z,28.80
2023-02-17T06:22:02.888Z,26.50
2023-02-17T06:25:39.505Z,26.10
2023-02-17T06:29:27.923Z,23.80
2023-02-17T06:32:57.444Z,25.20
2023-02-17T06:36:27.535Z,22.30
2023-02-17T06:40:16.573Z,22.40
2023-02-17T06:43:54.449Z,26.50
2023-02-17T06:47:29.360Z,33.70
2023-02-17T06:51:00.158Z,28.90
2023-02-17T06:54:52.265Z,27.60
2023-02-17T06:58:32.571Z,26.50
2023-02-17T07:02:18.727Z,30.60
2023-02-17T07:06:02.615Z,23.40
2023-02-17T07:09:49.624Z,24.90
2023-02-17T07:13:20.480Z,25.40
2023-02-17T07:17:08.268Z,25.50
2023-02-17T07:20:47.324Z,20.90
2023-02-17T07:24:05.074Z,29.00
2023-02-17T07:26:41.544Z,20.50
2023-02-17T07:29:38.032Z,21.20
2023-02-17T07:32:49.313Z,21.20
2023-02-17T07:35:56.251Z,21.70
2023-02-17T07:39:02.667Z,21.10
2023-02-17T07:42:07.018Z,20.90
2023-02-17T07:45:25.909Z,24.90
2023-02-17T07:48:43.561Z,20.30
2023-02-17T07:52:16.272Z,21.20
2023-02-17T07:55:42.739Z,23.20
2023-02-17T07:58:57.532Z,64.80
2023-02-17T08:02:39.159Z,84.30
2023-02-17T08:06:20.124Z,52.00
2023-02-17T08:09:52.392Z,41.60
2023-02-17T08:13:20.808Z,28.70
2023-02-17T08:16:42.938Z,31.40
2023-02-17T08:20:15.622Z,32.80
2023-02-17T08:23:40.058Z,31.50
2023-02-17T08:27:23.108Z,36.50
2023-02-17T08:31:12.465Z,62.10
2023-02-17T08:34:56.166Z,30.50
2023-02-17T08:38:21.880Z,31.30
2023-02-17T08:45:27.357Z,25.10
2023-02-17T08:48:54.909Z,23.50
2023-02-17T08:52:35.583Z,24.00
2023-02-17T08:56:06.454Z,26.50
2023-02-17T08:59:35.497Z,26.20
2023-02-17T09:02:45.882Z,27.70
2023-02-17T09:05:20.231Z,23.50
2023-02-17T09:08:11.209Z,24.50
2023-02-17T09:10:40.216Z,23.90
2023-02-17T09:13:31.841Z,25.30
2023-02-17T09:16:26.494Z,21.80
2023-02-17T09:19:18.282Z,24.00
2023-02-17T09:22:37.078Z,22.60
2023-02-17T09:25:37.178Z,28.50
2023-02-17T09:28:58.048Z,25.90
2023-02-17T09:32:08.276Z,23.20
2023-02-17T09:35:01.446Z,29.30
2023-02-17T09:38:23.510Z,28.50
2023-02-17T09:41:58.592Z,24.30
2023-02-17T09:45:08.598Z,24.20
2023-02-17T09:48:20.322Z,23.90
2023-02-17T09:51:15.354Z,25.50
2023-02-17T09:54:01.759Z,27.50
2023-02-17T09:57:23.053Z,21.90
2023-02-17T10:01:04.573Z,26.30
2023-02-17T10:04:19.022Z,26.30
2023-02-17T10:08:11.077Z,32.30
2023-02-17T10:12:02.664Z,25.80
2023-02-17T10:15:45.498Z,19.90
2023-02-17T10:19:40.670Z,25.90
2023-02-17T10:23:23.790Z,20.80
2023-02-17T10:31:23.212Z,21.90
2023-02-17T10:35:18.147Z,19.40
2023-02-17T10:39:00.770Z,22.60
2023-02-17T10:42:49.948Z,23.00
2023-02-17T11:11:21.794Z,22.90
2023-02-17T11:15:04.089Z,21.50
2023-02-17T11:18:29.358Z,25.20
2023-02-17T11:21:54.158Z,18.90
2023-02-17T11:50:50.789Z,16.90
2023-02-17T11:54:33.742Z,18.50
2023-02-17T11:58:21.183Z,17.80
2023-02-17T12:02:25.299Z,20.20
2023-02-17T12:06:21.364Z,17.20
2023-02-17T12:22:12.887Z,19.90
2023-02-17T12:26:07.203Z,18.20
2023-02-17T12:29:41.805Z,17.70
2023-02-17T12:32:51.151Z,20.60
2023-02-17T12:36:08.926Z,15.40
2023-02-17T12:39:47.649Z,20.20
2023-02-17T12:43:18.985Z,17.40
2023-02-17T12:45:58.563Z,17.40
2023-02-17T12:49:32.880Z,17.10
2023-02-17T12:53:02.441Z,15.80
2023-02-17T12:56:38.702Z,18.60
2023-02-17T13:12:48.847Z,18.60
2023-02-17T13:16:16.350Z,20.60
2023-02-17T13:20:09.789Z,21.40
2023-02-17T13:24:03.715Z,18.50
2023-02-17T13:30:47.564Z,16.80
2023-02-17T13:33:43.661Z,15.70
2023-02-17T13:37:12.692Z,16.40
2023-02-17T13:40:44.034Z,17.60
2023-02-17T13:51:22.581Z,15.20
2023-02-17T13:55:07.762Z,16.10
2023-02-17T13:58:11.301Z,14.40
2023-02-17T14:01:45.081Z,15.40
2023-02-17T14:05:17.091Z,17.70
2023-02-17T14:09:00.125Z,13.70
2023-02-17T14:12:15.360Z,14.50
2023-02-17T14:15:55.349Z,14.80
2023-02-17T14:19:44.370Z,16.20
2023-02-17T14:23:05.592Z,15.00
2023-02-17T14:26:51.055Z,13.20
2023-02-17T14:30:40.633Z,13.40
2023-02-17T14:34:18.845Z,23.00
2023-02-17T14:38:08.311Z,15.20
2023-02-17T14:41:13.795Z,14.80
2023-02-17T14:44:46.753Z,16.50
2023-02-17T14:48:30.074Z,15.50
2023-02-17T14:52:12.519Z,15.40
2023-02-17T15:25:18.876Z,14.40
2023-02-17T15:28:48.998Z,32.90
2023-02-17T15:32:26.831Z,24.70
2023-02-17T15:35:50.555Z,52.10
2023-02-17T15:39:28.032Z,40.90
2023-02-17T15:43:15.740Z,36.90
2023-02-17T15:46:52.027Z,23.10
2023-02-17T15:50:29.632Z,23.40
2023-02-17T15:53:56.970Z,21.80
2023-02-17T15:57:07.999Z,21.90
2023-02-17T16:00:57.244Z,22.40
2023-02-17T16:12:26.321Z,12.00
2023-02-17T16:16:15.373Z,19.60
2023-02-17T16:20:04.630Z,10.00
2023-02-17T16:36:04.657Z,19.40
2023-02-17T16:39:45.144Z,18.50
2023-02-17T16:43:32.650Z,15.80
2023-02-17T16:47:20.217Z,20.80
2023-02-17T16:51:10.864Z,15.80
2023-02-17T16:54:54.337Z,10.80
2023-02-17T16:58:42.151Z,13.30
2023-02-17T17:14:05.491Z,9.40
2023-02-17T17:17:53.672Z,11.30
2023-02-17T17:21:20.918Z,12.50
2023-02-17T17:25:10.069Z,9.30
2023-02-17T17:28:59.163Z,10.10
2023-02-17T17:32:49.010Z,11.20
2023-02-17T17:36:38.031Z,11.80
2023-02-17T17:40:27.349Z,12.20
2023-02-17T17:44:16.513Z,11.40
2023-02-17T17:47:48.390Z,14.30
2023-02-17T17:51:09.152Z,10.10
2023-02-17T17:54:43.539Z,10.80
2023-02-17T17:58:13.150Z,14.00
2023-02-17T18:02:02.167Z,13.40
2023-02-17T18:05:50.797Z,12.00
2023-02-17T18:09:42.483Z,12.30
2023-02-17T18:13:32.955Z,13.20
2023-02-17T18:17:22.041Z,11.10
2023-02-17T18:21:00.241Z,10.50
2023-02-17T18:43:07.473Z,11.80
2023-02-17T18:46:38.107Z,13.90
2023-02-17T18:50:26.208Z,12.70
2023-02-17T18:54:15.217Z,14.90
2023-02-17T18:58:04.534Z,12.20
2023-02-17T19:01:56.211Z,10.40
2023-02-17T19:05:44.431Z,13.40
2023-02-17T19:09:32.780Z,16.80
2023-02-17T19:13:21.911Z,13.20
2023-02-17T19:17:10.976Z,10.40
2023-02-17T19:21:00.322Z,10.90
2023-02-17T19:32:44.134Z,14.40
2023-02-17T19:36:33.653Z,11.10
2023-02-17T19:40:23.283Z,13.40
2023-02-17T19:44:12.882Z,14.00
2023-02-17T19:48:02.041Z,11.60
2023-02-17T19:51:49.788Z,10.60
2023-02-17T19:55:38.989Z,12.70
2023-02-17T19:59:28.219Z,11.50
2023-02-17T20:15:06.200Z,19.80
2023-02-17T20:18:55.405Z,10.20
2023-02-17T20:22:44.919Z,11.10
2023-02-17T20:26:34.317Z,12.30
2023-02-17T20:30:23.333Z,11.00
2023-02-17T20:34:12.297Z,9.90
2023-02-17T20:38:02.011Z,10.60
2023-02-17T20:41:51.140Z,7.30
2023-02-17T20:46:12.331Z,10.80
2023-02-17T20:50:01.078Z,11.80
2023-02-17T20:53:51.074Z,11.20
2023-02-17T21:01:08.876Z,10.00
2023-02-17T21:04:58.209Z,11.00
2023-02-17T21:08:47.917Z,12.50
2023-02-17T21:12:37.108Z,10.10
2023-02-17T21:16:26.566Z,11.30
2023-02-17T21:20:05.590Z,9.10
2023-02-17T21:23:53.760Z,9.80
2023-02-17T21:27:42.743Z,11.00
2023-02-17T21:31:32.286Z,12.70
2023-02-17T21:39:08.789Z,9.60
2023-02-17T21:42:55.276Z,8.70
2023-02-17T22:02:03.649Z,7.00
2023-02-17T22:05:51.414Z,20.90
2023-02-17T22:09:38.939Z,13.80
2023-02-17T22:13:26.503Z,6.80
2023-02-17T22:17:14.315Z,8.10
2023-02-17T22:21:02.656Z,8.10
2023-02-17T22:37:01.469Z,9.70
2023-02-17T22:40:49.276Z,9.00
2023-02-17T22:44:36.757Z,7.20
2023-02-17T22:48:24.360Z,5.60
2023-02-17T22:52:16.246Z,6.50
2023-02-17T22:56:04.247Z,7.00
2023-02-17T23:00:22.655Z,7.10
2023-02-17T23:04:12.048Z,8.60
2023-02-17T23:08:01.129Z,7.40
2023-02-17T23:11:48.464Z,5.70
2023-02-17T23:15:37.460Z,5.30
2023-02-17T23:19:26.496Z,5.30
2023-02-17T23:46:12.101Z,7.30
2023-02-17T23:50:01.409Z,8.00
2023-02-17T23:53:50.691Z,7.70
2023-02-17T23:57:39.574Z,7.10
